AAL2855 KCLT-KBWI
Flight info
| Callsign | AAL2855 |
|---|---|
| Flight time | N/A |
| Altitude | 35000 |
| Route | KILNS5 AUDII THHMP RAVNN7 |
| Aircraft | B738/M-SDE2E3FGHIRWXY/LB1 |
Departure
| Time | 2026-05-07 22:59 |
|---|---|
| Airport | Charlotte Douglas International Airport (KCLT) |
Arrival
| Time | N/A |
|---|---|
| Airport | Baltimore/Washington International Thurgood Marshall Airport (KBWI) |
| Time | Latitude | Longitude | Altitude | Speed | Heading |
|---|---|---|---|---|---|
| 2026-05-07 22:18 | 35.21862 | -80.94292 | 754 ft | 0 kts | 72° |
| 2026-05-07 22:42 | 35.21862 | -80.94294 | 755 ft | 0 kts | 72° |
| 2026-05-07 22:42 | 35.21860 | -80.94302 | 755 ft | 0 kts | 72° |
| 2026-05-07 22:42 | 35.21858 | -80.94311 | 755 ft | 0 kts | 72° |
| 2026-05-07 22:43 | 35.21856 | -80.94319 | 755 ft | 0 kts | 72° |
| 2026-05-07 22:43 | 35.21853 | -80.94327 | 755 ft | 0 kts | 72° |
| 2026-05-07 22:43 | 35.21851 | -80.94335 | 755 ft | 0 kts | 72° |
| 2026-05-07 22:43 | 35.21849 | -80.94344 | 755 ft | 0 kts | 71° |
| 2026-05-07 22:44 | 35.21846 | -80.94352 | 755 ft | 0 kts | 71° |
| 2026-05-07 22:44 | 35.21845 | -80.94360 | 755 ft | 0 kts | 71° |
| 2026-05-07 22:44 | 35.21842 | -80.94367 | 755 ft | 0 kts | 71° |
| 2026-05-07 22:44 | 35.21840 | -80.94375 | 755 ft | 0 kts | 71° |
| 2026-05-07 22:45 | 35.21838 | -80.94383 | 755 ft | 0 kts | 71° |
| 2026-05-07 22:49 | 35.21835 | -80.94373 | 755 ft | 4 kts | 118° |
| 2026-05-07 22:50 | 35.21805 | -80.94351 | 755 ft | 4 kts | 159° |
| 2026-05-07 22:50 | 35.21762 | -80.94344 | 755 ft | 7 kts | 175° |
| 2026-05-07 22:50 | 35.21713 | -80.94340 | 755 ft | 8 kts | 175° |
| 2026-05-07 22:50 | 35.21673 | -80.94244 | 755 ft | 21 kts | 98° |
| 2026-05-07 22:51 | 35.21748 | -80.94088 | 755 ft | 15 kts | 55° |
| 2026-05-07 22:51 | 35.21713 | -80.94012 | 755 ft | 13 kts | 142° |
| 2026-05-07 22:51 | 35.21650 | -80.93935 | 755 ft | 12 kts | 135° |
| 2026-05-07 22:51 | 35.21569 | -80.93842 | 754 ft | 18 kts | 139° |
| 2026-05-07 22:52 | 35.21460 | -80.93723 | 754 ft | 20 kts | 138° |
| 2026-05-07 22:52 | 35.21342 | -80.93653 | 754 ft | 18 kts | 174° |
| 2026-05-07 22:52 | 35.21186 | -80.93639 | 754 ft | 29 kts | 176° |
| 2026-05-07 22:52 | 35.20948 | -80.93619 | 754 ft | 37 kts | 176° |
| 2026-05-07 22:53 | 35.20673 | -80.93595 | 754 ft | 39 kts | 175° |
| 2026-05-07 22:53 | 35.20512 | -80.93581 | 754 ft | 15 kts | 175° |
| 2026-05-07 22:53 | 35.20466 | -80.93577 | 754 ft | 0 kts | 175° |
| 2026-05-07 22:53 | 35.20461 | -80.93576 | 754 ft | 1 kts | 175° |
| 2026-05-07 22:54 | 35.20451 | -80.93575 | 754 ft | 1 kts | 175° |
| 2026-05-07 22:54 | 35.20438 | -80.93574 | 754 ft | 1 kts | 175° |
| 2026-05-07 22:54 | 35.20425 | -80.93573 | 754 ft | 1 kts | 175° |
| 2026-05-07 22:54 | 35.20410 | -80.93572 | 754 ft | 2 kts | 175° |
| 2026-05-07 22:55 | 35.20396 | -80.93570 | 754 ft | 2 kts | 175° |
| 2026-05-07 22:55 | 35.20381 | -80.93568 | 754 ft | 2 kts | 175° |
| 2026-05-07 22:55 | 35.20364 | -80.93568 | 754 ft | 2 kts | 177° |
| 2026-05-07 22:55 | 35.20345 | -80.93566 | 755 ft | 2 kts | 177° |
| 2026-05-07 22:56 | 35.20307 | -80.93564 | 755 ft | 9 kts | 176° |
| 2026-05-07 22:56 | 35.20216 | -80.93557 | 754 ft | 15 kts | 175° |
| 2026-05-07 22:56 | 35.20124 | -80.93538 | 754 ft | 9 kts | 142° |
| 2026-05-07 22:56 | 35.20106 | -80.93511 | 755 ft | 0 kts | 90° |
| 2026-05-07 22:57 | 35.20106 | -80.93503 | 755 ft | 4 kts | 90° |
| 2026-05-07 22:58 | 35.20106 | -80.93446 | 755 ft | 6 kts | 88° |
| 2026-05-07 22:58 | 35.20117 | -80.93408 | 755 ft | 4 kts | 25° |
| 2026-05-07 22:58 | 35.20136 | -80.93409 | 755 ft | 0 kts | 353° |
| 2026-05-07 22:58 | 35.20205 | -80.93417 | 755 ft | 38 kts | 355° |
| 2026-05-07 22:59 | 35.20728 | -80.93465 | 755 ft | 109 kts | 355° |
| 2026-05-07 22:59 | 35.21703 | -80.93549 | 782 ft | 166 kts | 358° |
| 2026-05-07 22:59 | 35.22782 | -80.93658 | 1560 ft | 159 kts | 356° |
| 2026-05-07 22:59 | 35.23960 | -80.93706 | 1981 ft | 183 kts | 4° |
| 2026-05-07 23:00 | 35.25291 | -80.93364 | 2427 ft | 207 kts | 16° |
| 2026-05-07 23:00 | 35.26754 | -80.92785 | 2915 ft | 229 kts | 17° |
| 2026-05-07 23:00 | 35.28206 | -80.92188 | 3235 ft | 213 kts | 17° |
| 2026-05-07 23:00 | 35.29549 | -80.91622 | 3481 ft | 196 kts | 17° |
| 2026-05-07 23:01 | 35.30832 | -80.91067 | 3642 ft | 199 kts | 17° |
| 2026-05-07 23:01 | 35.32147 | -80.90488 | 4459 ft | 204 kts | 16° |
| 2026-05-07 23:01 | 35.33542 | -80.89857 | 4753 ft | 238 kts | 17° |
| 2026-05-07 23:01 | 35.35201 | -80.89108 | 5284 ft | 261 kts | 16° |
| 2026-05-07 23:02 | 35.36955 | -80.88303 | 5909 ft | 280 kts | 17° |
| 2026-05-07 23:02 | 35.38815 | -80.87439 | 6602 ft | 296 kts | 16° |
| 2026-05-07 23:02 | 35.40795 | -80.86498 | 7359 ft | 309 kts | 16° |
| 2026-05-07 23:02 | 35.42813 | -80.85506 | 8154 ft | 319 kts | 19° |
| 2026-05-07 23:03 | 35.44644 | -80.83965 | 9018 ft | 330 kts | 44° |
| 2026-05-07 23:03 | 35.45766 | -80.81557 | 9913 ft | 332 kts | 72° |
| 2026-05-07 23:03 | 35.46161 | -80.78751 | 10560 ft | 339 kts | 85° |
| 2026-05-07 23:03 | 35.46337 | -80.75814 | 10919 ft | 356 kts | 87° |
| 2026-05-07 23:04 | 35.46492 | -80.72693 | 11255 ft | 373 kts | 86° |
| 2026-05-07 23:04 | 35.46679 | -80.69463 | 11563 ft | 390 kts | 85° |
| 2026-05-07 23:04 | 35.46907 | -80.66129 | 11897 ft | 405 kts | 84° |
| 2026-05-07 23:04 | 35.47169 | -80.62643 | 12174 ft | 421 kts | 84° |
| 2026-05-07 23:05 | 35.47458 | -80.58952 | 12556 ft | 434 kts | 84° |
| 2026-05-07 23:05 | 35.47752 | -80.55279 | 13112 ft | 441 kts | 84° |
| 2026-05-07 23:05 | 35.48051 | -80.51500 | 13702 ft | 446 kts | 84° |
| 2026-05-07 23:05 | 35.48349 | -80.47701 | 14240 ft | 452 kts | 84° |
| 2026-05-07 23:06 | 35.48645 | -80.43883 | 14765 ft | 458 kts | 84° |
| 2026-05-07 23:06 | 35.48948 | -80.39943 | 15289 ft | 465 kts | 83° |
| 2026-05-07 23:06 | 35.49248 | -80.36005 | 15793 ft | 470 kts | 83° |
| 2026-05-07 23:06 | 35.49549 | -80.32004 | 16259 ft | 476 kts | 84° |
| 2026-05-07 23:07 | 35.49855 | -80.27926 | 16660 ft | 483 kts | 84° |
| 2026-05-07 23:07 | 35.50162 | -80.23820 | 17163 ft | 488 kts | 84° |
| 2026-05-07 23:07 | 35.50474 | -80.19631 | 17629 ft | 493 kts | 84° |
| 2026-05-07 23:07 | 35.50785 | -80.15488 | 18099 ft | 497 kts | 84° |
| 2026-05-07 23:08 | 35.51101 | -80.11263 | 18476 ft | 503 kts | 84° |
| 2026-05-07 23:08 | 35.51423 | -80.06949 | 18974 ft | 506 kts | 84° |
| 2026-05-07 23:08 | 35.51740 | -80.02682 | 19379 ft | 511 kts | 84° |
| 2026-05-07 23:08 | 35.52063 | -79.98314 | 19778 ft | 516 kts | 84° |
| 2026-05-07 23:09 | 35.52387 | -79.93904 | 20134 ft | 522 kts | 84° |
| 2026-05-07 23:09 | 35.52721 | -79.89490 | 20540 ft | 526 kts | 83° |
| 2026-05-07 23:09 | 35.53174 | -79.85030 | 20925 ft | 530 kts | 80° |
| 2026-05-07 23:09 | 35.53905 | -79.80557 | 21298 ft | 533 kts | 74° |
| 2026-05-07 23:10 | 35.54218 | -79.79093 | 21422 ft | 534 kts | 72° |
| 2026-05-07 23:10 | 35.56143 | -79.71898 | 22090 ft | 538 kts | 66° |
| 2026-05-07 23:10 | 35.57496 | -79.67546 | 22373 ft | 544 kts | 65° |
| 2026-05-07 23:10 | 35.57964 | -79.66097 | 22500 ft | 545 kts | 65° |